Trousdale, Kansas
Current Conditions -  °F | °C
As of 4:15 PM on Sunday 21 Dec 2014 (Local Time) from KPTT Reporting Station
Haze Haze  
Wind Chill: 33°   Ceiling: 800
Heat Index: 41°   Visibility: 5mi
Dew Point: 41°   Wind: 14mph
Humidity: 100%   Direction: 180°S
Pressure: 29.69"   Gusts: NA
Location:  37.5596°N, 99.1586°W
Report Text: KPTT 212215Z AUTO 18012KT 5SM BR BKN008 OVC023 05/05 A2969 RMK AO2
Loading
Personal Weather Stations






























Interactive Weather Map New forecast layout! Learn more

10-Day Weather Forecast

Advertisements
Track Severe Weather on mobile